Time;durP1;ratioP1;P1;durP2;ratioP2;P2;SDS_P1;SDS_P2;PMS_P1;PMS_P2;Temp;Humidity;BMP_temperature;BMP_pressure;BME280_temperature;BME280_humidity;BME280_pressure;Samples;Min_cycle;Max_cycle;Signal;HPM_P1;HPM_P2
2023/09/13 00:02:16;;;;;;;12.98;9.98;;;24.30;63.40;;;;;;5018404;28;20032;-62
2023/09/13 00:04:41;;;;;;;13.18;10.23;;;24.30;63.60;;;;;;5017025;28;20040;-64
2023/09/13 00:07:07;;;;;;;13.52;9.48;;;24.30;63.80;;;;;;5015223;28;20041;-60
2023/09/13 00:09:33;;;;;;;18.52;11.05;;;24.20;63.90;;;;;;5018160;28;20025;-62
2023/09/13 00:11:58;;;;;;;19.83;11.52;;;24.20;64.40;;;;;;5015680;28;20061;-64
2023/09/13 00:14:24;;;;;;;13.05;10.60;;;24.10;64.50;;;;;;5015545;28;20087;-62
2023/09/13 00:16:50;;;;;;;16.58;10.68;;;24.10;64.60;;;;;;5018157;28;20053;-64
2023/09/13 00:19:16;;;;;;;19.35;12.55;;;24.00;64.60;;;;;;5002881;28;20030;-63
2023/09/13 00:21:42;;;;;;;14.65;10.23;;;24.00;65.00;;;;;;5019170;28;20048;-62
2023/09/13 00:24:09;;;;;;;17.45;10.75;;;24.10;65.00;;;;;;5019337;28;20022;-65
2023/09/13 00:26:34;;;;;;;15.52;10.48;;;24.10;65.00;;;;;;5018651;28;20030;-64
2023/09/13 00:29:00;;;;;;;13.77;10.40;;;24.00;65.20;;;;;;5019850;28;20092;-64
2023/09/13 00:31:25;;;;;;;14.30;9.73;;;24.00;65.20;;;;;;5018495;28;20028;-63
2023/09/13 00:33:51;;;;;;;11.55;9.27;;;24.00;65.10;;;;;;5016854;28;20022;-64
2023/09/13 00:36:16;;;;;;;16.35;9.90;;;23.90;65.50;;;;;;5014354;28;20199;-63
2023/09/13 00:38:42;;;;;;;12.18;8.90;;;24.00;65.40;;;;;;5017332;28;20036;-64
2023/09/13 00:41:07;;;;;;;11.30;8.73;;;24.00;65.00;;;;;;5016160;28;20037;-63
2023/09/13 00:43:33;;;;;;;14.27;9.10;;;23.90;65.20;;;;;;5015521;28;20105;-63
2023/09/13 00:45:59;;;;;;;13.60;7.85;;;23.90;65.20;;;;;;5017959;28;20030;-64
2023/09/13 00:48:25;;;;;;;14.90;8.63;;;23.80;65.60;;;;;;5024309;28;20033;-64
2023/09/13 00:50:51;;;;;;;12.40;8.68;;;23.80;65.60;;;;;;5018977;28;20033;-62
2023/09/13 00:53:18;;;;;;;14.35;8.30;;;23.90;65.40;;;;;;5018136;28;20050;-63
2023/09/13 00:55:45;;;;;;;10.48;7.53;;;23.90;65.40;;;;;;5018569;28;20057;-60
2023/09/13 00:58:11;;;;;;;9.80;7.30;;;23.90;65.40;;;;;;5019052;28;20526;-64
2023/09/13 01:00:37;;;;;;;14.50;7.72;;;24.00;65.00;;;;;;5016800;28;20424;-57
2023/09/13 01:03:05;;;;;;;8.40;6.85;;;23.90;64.80;;;;;;5014405;28;20030;-62
2023/09/13 01:05:31;;;;;;;9.48;7.10;;;23.70;65.20;;;;;;5016351;28;20097;-64
2023/09/13 01:07:56;;;;;;;11.43;6.72;;;23.60;65.40;;;;;;5017745;28;20041;-57
2023/09/13 01:10:22;;;;;;;8.27;6.38;;;23.60;65.50;;;;;;5015144;28;20041;-64
2023/09/13 01:12:48;;;;;;;9.55;6.70;;;23.60;65.80;;;;;;5015652;28;20045;-63
2023/09/13 01:15:14;;;;;;;12.18;6.60;;;23.70;65.30;;;;;;5022663;28;20496;-60
2023/09/13 01:18:06;;;;;;;9.32;6.80;;;23.80;65.10;;;;;;5027047;28;20108;-64
2023/09/13 01:24:24;;;;;;;8.40;5.60;;;23.90;65.00;;;;;;5015370;28;20048;-64
2023/09/13 01:27:10;;;;;;;6.13;5.57;;;23.90;64.80;;;;;;5017404;28;20045;-64
2023/09/13 01:29:37;;;;;;;10.95;5.95;;;24.00;65.00;;;;;;5018240;28;20124;-63
2023/09/13 01:32:03;;;;;;;7.72;5.97;;;24.00;64.80;;;;;;5016021;28;20030;-64
2023/09/13 01:34:29;;;;;;;6.22;5.63;;;24.00;64.60;;;;;;5017044;28;20037;-64
2023/09/13 01:36:56;;;;;;;7.63;5.60;;;24.10;64.60;;;;;;5017508;28;20103;-61
2023/09/13 01:39:22;;;;;;;10.38;6.05;;;24.10;64.50;;;;;;5017817;28;20030;-64
2023/09/13 01:41:58;;;;;;;7.45;5.88;;;24.10;64.30;;;;;;5015485;28;20393;-64
2023/09/13 01:44:26;;;;;;;6.72;5.25;;;24.10;64.70;;;;;;5020881;28;20028;-64
2023/09/13 01:46:52;;;;;;;6.80;5.18;;;24.00;65.00;;;;;;5020446;28;20044;-59
2023/09/13 01:49:20;;;;;;;8.57;4.70;;;24.00;64.80;;;;;;5024259;28;20041;-62
2023/09/13 01:51:46;;;;;;;9.30;5.70;;;24.00;64.60;;;;;;5019609;28;20528;-62
2023/09/13 01:54:12;;;;;;;5.68;5.07;;;24.10;64.60;;;;;;5023524;28;20046;-63
2023/09/13 01:56:37;;;;;;;7.78;5.05;;;24.10;64.50;;;;;;5020954;28;20044;-60
2023/09/13 01:59:03;;;;;;;6.32;5.32;;;24.10;64.40;;;;;;5018741;28;20607;-65
2023/09/13 02:01:28;;;;;;;6.93;5.03;;;24.10;64.40;;;;;;5016625;28;20041;-63
2023/09/13 02:03:54;;;;;;;7.97;5.25;;;24.10;64.50;;;;;;5019264;28;20021;-64
2023/09/13 02:06:20;;;;;;;6.18;5.57;;;24.10;64.50;;;;;;5020938;28;20029;-64
2023/09/13 02:08:45;;;;;;;11.10;5.38;;;24.10;64.50;;;;;;5007347;28;20488;-61
2023/09/13 02:11:11;;;;;;;5.45;4.90;;;24.10;64.50;;;;;;5017303;28;20076;-64
2023/09/13 02:13:37;;;;;;;5.68;4.97;;;24.10;65.10;;;;;;5029231;28;20274;-62
2023/09/13 02:16:03;;;;;;;7.15;5.00;;;24.10;64.50;;;;;;5024962;28;20034;-65
2023/09/13 02:18:28;;;;;;;6.72;5.10;;;24.10;64.40;;;;;;5024572;28;20036;-65
2023/09/13 02:20:54;;;;;;;6.70;5.30;;;24.10;64.40;;;;;;5021709;28;20034;-64
2023/09/13 02:23:20;;;;;;;7.30;5.35;;;24.10;64.40;;;;;;5022262;28;20045;-64
2023/09/13 02:25:46;;;;;;;5.68;4.45;;;24.10;64.40;;;;;;5023009;28;20025;-64
2023/09/13 02:28:13;;;;;;;5.60;4.97;;;24.10;64.50;;;;;;5017740;28;20034;-64
2023/09/13 02:30:39;;;;;;;8.20;4.80;;;24.10;64.60;;;;;;5015140;28;20056;-65
2023/09/13 02:33:05;;;;;;;6.07;4.60;;;24.10;64.50;;;;;;5018003;28;20412;-64
2023/09/13 02:35:32;;;;;;;5.25;4.70;;;24.10;64.70;;;;;;5020074;28;20522;-65
2023/09/13 02:37:58;;;;;;;5.68;5.00;;;24.10;64.70;;;;;;5006760;28;20441;-64
2023/09/13 02:40:24;;;;;;;4.38;3.97;;;24.10;64.70;;;;;;5013646;28;20515;-64
2023/09/13 02:42:49;;;;;;;5.20;4.20;;;24.10;64.60;;;;;;5022960;28;20037;-64
2023/09/13 02:45:15;;;;;;;5.03;4.18;;;24.10;64.60;;;;;;4991778;28;20041;-64
2023/09/13 02:47:41;;;;;;;7.82;4.50;;;24.00;64.50;;;;;;5024579;28;20029;-65
2023/09/13 02:50:07;;;;;;;5.72;4.20;;;24.10;64.50;;;;;;5018778;28;20075;-64
2023/09/13 02:52:33;;;;;;;5.57;4.70;;;24.10;64.70;;;;;;5021277;28;20574;-61
2023/09/13 02:55:01;;;;;;;4.78;4.35;;;24.00;64.70;;;;;;5002323;28;20092;-65
2023/09/13 02:57:27;;;;;;;5.15;4.53;;;24.10;64.70;;;;;;5008307;28;20029;-65
2023/09/13 02:59:53;;;;;;;5.45;4.38;;;24.00;64.70;;;;;;5021075;28;20511;-65
2023/09/13 03:05:40;;;;;;;5.82;4.65;;;24.00;64.60;;;;;;5001778;28;20076;-64
2023/09/13 03:08:06;;;;;;;7.28;4.72;;;24.00;64.50;;;;;;5016838;28;20602;-64
2023/09/13 03:10:33;;;;;;;4.55;4.10;;;24.00;64.60;;;;;;5011783;28;20032;-60
2023/09/13 03:12:58;;;;;;;5.07;4.20;;;24.00;64.60;;;;;;5023145;28;20037;-65
2023/09/13 03:15:24;;;;;;;4.45;4.05;;;24.00;64.60;;;;;;5004601;28;20033;-58
2023/09/13 03:17:50;;;;;;;5.55;3.47;;;24.00;64.50;;;;;;5017947;28;20103;-63
2023/09/13 03:20:16;;;;;;;4.93;3.95;;;24.00;64.50;;;;;;5005356;28;20021;-64
2023/09/13 03:22:41;;;;;;;4.55;4.15;;;24.00;64.60;;;;;;5020013;28;20044;-64
2023/09/13 03:25:07;;;;;;;4.50;4.10;;;24.00;64.50;;;;;;5021443;28;20034;-63
2023/09/13 03:27:33;;;;;;;5.63;3.78;;;23.90;64.70;;;;;;5018579;28;20034;-64
2023/09/13 03:29:58;;;;;;;6.40;4.18;;;23.90;64.70;;;;;;5018982;28;20285;-64
2023/09/13 03:32:24;;;;;;;5.75;4.28;;;23.90;64.50;;;;;;5017352;28;20030;-64
2023/09/13 03:34:51;;;;;;;6.07;4.30;;;23.90;64.40;;;;;;5018640;28;21123;-63
2023/09/13 03:37:17;;;;;;;5.65;3.85;;;24.00;64.40;;;;;;5020287;28;20046;-63
2023/09/13 03:39:43;;;;;;;4.43;4.03;;;23.90;64.40;;;;;;5018322;28;20061;-64
2023/09/13 03:42:09;;;;;;;4.80;3.92;;;24.00;64.80;;;;;;5023340;28;20072;-63
2023/09/13 03:44:34;;;;;;;5.68;4.15;;;23.90;64.70;;;;;;5020576;28;20092;-64
2023/09/13 03:46:59;;;;;;;4.95;3.92;;;23.90;64.60;;;;;;5019170;28;20034;-63
2023/09/13 03:49:25;;;;;;;4.80;3.95;;;23.90;64.40;;;;;;5021224;28;20446;-60
2023/09/13 03:51:51;;;;;;;6.90;3.92;;;23.90;64.40;;;;;;5020004;28;20499;-63
2023/09/13 03:54:16;;;;;;;4.30;3.90;;;23.90;64.70;;;;;;5022718;28;20041;-60
2023/09/13 03:56:42;;;;;;;5.75;4.45;;;23.90;64.50;;;;;;5018171;28;20060;-63
2023/09/13 03:59:07;;;;;;;6.45;3.88;;;23.90;64.40;;;;;;5016882;28;20558;-64
2023/09/13 04:01:33;;;;;;;4.53;3.60;;;23.90;64.60;;;;;;5020627;28;20030;-63
2023/09/13 04:03:58;;;;;;;5.50;3.80;;;23.90;64.40;;;;;;5021328;28;20540;-64
2023/09/13 04:06:24;;;;;;;5.07;4.30;;;23.90;64.30;;;;;;5020174;28;20492;-63
2023/09/13 04:08:49;;;;;;;5.60;4.13;;;23.90;64.40;;;;;;5018108;28;20136;-61
2023/09/13 04:11:15;;;;;;;5.20;4.13;;;23.90;64.10;;;;;;5018761;28;20037;-64
2023/09/13 04:13:40;;;;;;;4.15;3.65;;;23.80;64.40;;;;;;5018824;28;20589;-60
2023/09/13 04:16:07;;;;;;;5.07;3.65;;;23.80;64.50;;;;;;5018310;28;20025;-64
2023/09/13 04:18:33;;;;;;;4.50;3.85;;;23.80;64.20;;;;;;5018886;28;20508;-60
2023/09/13 04:20:58;;;;;;;4.30;3.90;;;23.80;64.50;;;;;;5018972;28;20076;-63
2023/09/13 04:23:24;;;;;;;4.45;4.13;;;23.80;64.40;;;;;;5019703;28;20048;-63
2023/09/13 04:25:49;;;;;;;5.38;3.95;;;23.80;64.30;;;;;;5019360;28;20032;-63
2023/09/13 04:28:15;;;;;;;5.15;4.22;;;23.80;64.40;;;;;;5018951;28;20033;-64
2023/09/13 04:30:41;;;;;;;4.75;3.80;;;23.90;64.30;;;;;;5020335;28;20549;-63
2023/09/13 04:33:07;;;;;;;5.85;4.65;;;23.90;64.40;;;;;;5013382;28;20512;-63
2023/09/13 04:35:33;;;;;;;4.57;4.00;;;23.90;64.30;;;;;;5018768;28;20520;-63
2023/09/13 04:37:59;;;;;;;5.13;3.92;;;23.90;64.50;;;;;;5018970;28;20029;-63
2023/09/13 04:40:24;;;;;;;5.32;4.30;;;23.80;64.50;;;;;;5016625;28;20022;-60
2023/09/13 04:43:14;;;;;;;5.18;4.35;;;23.80;64.60;;;;;;5015740;28;20025;-63
2023/09/13 04:45:39;;;;;;;6.60;4.93;;;23.80;64.60;;;;;;4998999;28;20073;-64
2023/09/13 04:48:05;;;;;;;7.60;4.60;;;23.80;64.80;;;;;;5019142;28;20064;-65
2023/09/13 04:50:31;;;;;;;5.72;4.57;;;23.80;65.30;;;;;;5019527;28;20079;-64
2023/09/13 04:52:56;;;;;;;6.43;4.70;;;23.80;65.30;;;;;;5018182;28;20444;-64
2023/09/13 04:55:23;;;;;;;5.35;4.85;;;23.80;65.60;;;;;;5010401;28;20064;-65
2023/09/13 04:57:49;;;;;;;6.07;5.47;;;23.80;65.70;;;;;;5015627;28;20040;-64
2023/09/13 05:00:16;;;;;;;7.60;5.97;;;23.80;65.60;;;;;;5013589;28;20026;-64
2023/09/13 05:02:41;;;;;;;8.02;5.88;;;23.70;65.50;;;;;;5018037;28;20083;-65
2023/09/13 05:05:07;;;;;;;7.50;6.63;;;23.70;65.60;;;;;;5017982;28;20255;-64
2023/09/13 05:07:33;;;;;;;15.13;7.28;;;23.70;65.50;;;;;;5018191;28;20065;-62
2023/09/13 05:09:59;;;;;;;9.30;7.07;;;23.70;65.70;;;;;;5020410;28;20114;-62
2023/09/13 05:12:24;;;;;;;11.20;7.50;;;23.70;65.80;;;;;;5016605;28;20160;-59
2023/09/13 05:14:50;;;;;;;8.25;7.45;;;23.60;67.20;;;;;;5017608;28;20033;-63
2023/09/13 05:17:15;;;;;;;14.70;8.13;;;23.60;67.00;;;;;;5019069;28;20036;-55
2023/09/13 05:19:41;;;;;;;11.15;7.72;;;23.60;66.60;;;;;;5017474;28;20122;-63
2023/09/13 05:22:06;;;;;;;11.55;8.38;;;23.60;66.30;;;;;;5016382;28;20072;-63
2023/09/13 05:24:32;;;;;;;13.70;8.38;;;23.60;66.40;;;;;;5017038;28;20410;-64
2023/09/13 05:26:57;;;;;;;14.93;8.82;;;23.60;66.40;;;;;;5018493;28;20038;-64
2023/09/13 05:29:23;;;;;;;9.00;7.97;;;23.70;66.40;;;;;;5015278;28;20379;-63
2023/09/13 05:31:49;;;;;;;9.50;8.27;;;23.70;66.50;;;;;;5018458;28;20038;-63
2023/09/13 05:34:15;;;;;;;15.18;9.15;;;23.70;66.50;;;;;;5016336;28;20493;-59
2023/09/13 05:36:41;;;;;;;10.95;9.02;;;23.70;66.40;;;;;;5016086;28;20129;-64
2023/09/13 05:39:07;;;;;;;10.90;8.02;;;23.70;66.40;;;;;;5015068;28;20028;-63
2023/09/13 05:41:33;;;;;;;15.45;9.63;;;23.70;66.40;;;;;;5012257;28;20044;-63
2023/09/13 05:43:58;;;;;;;11.45;9.15;;;23.70;66.80;;;;;;5017370;28;20494;-63
2023/09/13 05:46:24;;;;;;;14.85;10.05;;;23.70;66.50;;;;;;5020005;28;20029;-62
2023/09/13 05:48:49;;;;;;;14.48;10.02;;;23.70;66.20;;;;;;5021141;28;20081;-63
2023/09/13 05:51:15;;;;;;;14.10;9.63;;;23.70;66.40;;;;;;5019011;28;20053;-57
2023/09/13 05:53:40;;;;;;;13.40;9.00;;;23.70;66.30;;;;;;5017216;28;20041;-63
2023/09/13 05:56:10;;;;;;;16.38;10.73;;;23.70;66.50;;;;;;5016636;28;20030;-63
2023/09/13 05:58:35;;;;;;;14.65;11.75;;;23.60;66.20;;;;;;5019280;28;20081;-62
2023/09/13 06:07:44;;;;;;;12.20;10.50;;;23.60;66.40;;;;;;4998554;28;20033;-64
2023/09/13 06:10:11;;;;;;;11.18;9.95;;;23.60;66.10;;;;;;5012304;28;20030;-63
2023/09/13 06:12:36;;;;;;;11.98;9.77;;;23.60;66.20;;;;;;5006035;28;20038;-63
2023/09/13 06:15:02;;;;;;;11.95;10.30;;;23.60;66.20;;;;;;5019466;28;20393;-63
2023/09/13 06:17:27;;;;;;;14.10;10.32;;;23.60;66.00;;;;;;5021831;28;20045;-64
2023/09/13 06:19:53;;;;;;;13.93;10.95;;;23.60;66.10;;;;;;5017958;28;20395;-64
2023/09/13 06:22:19;;;;;;;11.73;10.50;;;23.50;66.50;;;;;;5020846;28;20499;-63
2023/09/13 06:24:44;;;;;;;14.43;9.57;;;23.60;66.50;;;;;;5018699;28;20059;-64
2023/09/13 06:27:10;;;;;;;12.38;9.55;;;23.60;66.50;;;;;;4996403;28;20026;-64
2023/09/13 06:29:36;;;;;;;12.82;9.85;;;23.50;66.60;;;;;;5018312;28;20053;-62
2023/09/13 06:32:03;;;;;;;12.95;9.82;;;23.50;66.40;;;;;;5017326;28;20493;-63
2023/09/13 06:34:28;;;;;;;11.43;9.63;;;23.50;66.80;;;;;;5017265;28;20034;-62
2023/09/13 06:36:55;;;;;;;13.32;10.00;;;23.50;66.60;;;;;;5026372;28;20028;-59
2023/09/13 06:39:21;;;;;;;14.75;10.10;;;23.50;66.10;;;;;;5026488;28;20087;-63
2023/09/13 06:41:46;;;;;;;10.88;9.63;;;23.50;66.00;;;;;;5022211;28;20033;-63
2023/09/13 06:44:12;;;;;;;13.80;10.95;;;23.50;66.10;;;;;;5023184;28;20466;-63
2023/09/13 06:46:38;;;;;;;12.02;9.85;;;23.50;66.20;;;;;;5022331;28;20064;-63
2023/09/13 06:49:04;;;;;;;11.30;8.90;;;23.50;65.80;;;;;;5023475;28;20450;-63
2023/09/13 06:51:30;;;;;;;9.65;8.65;;;23.40;66.50;;;;;;5021821;28;20053;-64
2023/09/13 06:53:55;;;;;;;12.20;9.10;;;23.50;65.80;;;;;;5022828;28;20072;-63
2023/09/13 06:56:21;;;;;;;9.85;8.07;;;23.40;65.40;;;;;;5021777;28;20491;-63
2023/09/13 06:58:47;;;;;;;9.60;8.65;;;23.40;65.50;;;;;;5019034;28;20050;-62
2023/09/13 07:01:13;;;;;;;8.82;7.93;;;23.40;65.20;;;;;;5018079;28;20034;-61
2023/09/13 07:03:39;;;;;;;9.98;7.65;;;23.40;65.20;;;;;;5018698;28;20045;-61
2023/09/13 07:06:04;;;;;;;10.90;7.85;;;23.40;65.10;;;;;;5018607;28;20026;-59
2023/09/13 07:08:30;;;;;;;10.35;7.85;;;23.40;65.10;;;;;;5014894;28;20492;-63
2023/09/13 07:10:56;;;;;;;11.15;7.18;;;23.40;65.10;;;;;;5018978;28;20034;-63
2023/09/13 07:13:21;;;;;;;8.00;6.38;;;23.40;64.90;;;;;;5024551;28;20091;-56
2023/09/13 07:15:47;;;;;;;7.78;6.60;;;23.40;64.90;;;;;;5021268;28;20040;-63
2023/09/13 07:18:13;;;;;;;8.05;6.97;;;23.40;65.70;;;;;;5021754;28;20045;-55
2023/09/13 07:20:38;;;;;;;7.75;6.95;;;23.40;65.10;;;;;;5020784;28;20033;-62
2023/09/13 07:23:04;;;;;;;8.13;6.80;;;23.40;65.10;;;;;;5021070;28;20053;-62
2023/09/13 07:25:29;;;;;;;7.03;6.32;;;23.40;65.20;;;;;;5020484;28;20029;-62
2023/09/13 07:27:55;;;;;;;7.65;6.47;;;23.40;65.00;;;;;;5019120;28;20030;-60
2023/09/13 07:30:20;;;;;;;9.80;6.70;;;23.40;65.20;;;;;;5017393;28;20523;-63
2023/09/13 07:32:49;;;;;;;7.50;6.68;;;23.40;65.40;;;;;;5019245;28;20029;-62
2023/09/13 07:35:14;;;;;;;7.93;6.85;;;23.40;65.30;;;;;;5013357;28;20107;-62
2023/09/13 07:37:39;;;;;;;9.00;6.88;;;23.40;65.30;;;;;;5018940;28;20034;-63
2023/09/13 07:40:06;;;;;;;9.45;6.43;;;23.30;65.30;;;;;;5022195;28;20030;-63
2023/09/13 07:42:31;;;;;;;7.40;6.70;;;23.40;65.20;;;;;;5021226;28;20033;-63
2023/09/13 07:44:57;;;;;;;7.10;5.82;;;23.30;65.20;;;;;;5019442;28;20752;-63
2023/09/13 07:47:22;;;;;;;7.90;6.47;;;23.30;65.40;;;;;;5020858;28;20057;-63
2023/09/13 07:49:49;;;;;;;9.55;6.35;;;23.30;65.50;;;;;;5018867;28;20038;-62
2023/09/13 07:52:14;;;;;;;6.22;5.63;;;23.30;65.20;;;;;;5020773;28;20038;-63
2023/09/13 07:54:40;;;;;;;6.70;6.10;;;23.30;65.30;;;;;;5019273;28;20096;-64
2023/09/13 07:57:06;;;;;;;7.28;6.57;;;23.30;65.30;;;;;;5016872;28;20033;-63
2023/09/13 07:59:32;;;;;;;7.80;6.25;;;23.30;65.40;;;;;;5014718;28;20044;-63
2023/09/13 08:01:57;;;;;;;8.40;6.32;;;23.40;65.60;;;;;;5016546;28;20618;-62
2023/09/13 08:04:23;;;;;;;10.40;7.07;;;23.30;65.60;;;;;;5017546;28;20030;-63
2023/09/13 08:06:48;;;;;;;9.75;6.05;;;23.40;65.70;;;;;;5016093;28;20194;-63
2023/09/13 08:09:15;;;;;;;8.35;6.63;;;23.40;65.80;;;;;;5023725;28;20488;-64
2023/09/13 08:11:41;;;;;;;6.63;5.93;;;23.40;65.70;;;;;;5025750;28;20446;-63
2023/09/13 08:14:07;;;;;;;9.90;6.18;;;23.40;65.80;;;;;;5020005;28;20056;-63
2023/09/13 08:16:32;;;;;;;7.00;5.72;;;23.30;66.00;;;;;;5020388;28;20427;-63
2023/09/13 08:18:58;;;;;;;9.00;6.45;;;23.40;65.90;;;;;;5020080;28;20029;-63
2023/09/13 08:21:24;;;;;;;8.32;5.78;;;23.40;65.50;;;;;;5018962;28;20034;-62
2023/09/13 08:23:49;;;;;;;7.53;5.72;;;23.40;65.50;;;;;;5017906;28;20025;-63
2023/09/13 08:26:16;;;;;;;10.10;5.85;;;23.40;65.90;;;;;;5016439;28;20356;-63
2023/09/13 08:28:42;;;;;;;7.97;5.60;;;23.40;66.70;;;;;;5018524;28;20057;-63
2023/09/13 08:31:08;;;;;;;7.72;5.40;;;23.40;66.30;;;;;;5015831;28;20342;-63
2023/09/13 08:33:33;;;;;;;5.65;4.80;;;23.30;66.20;;;;;;5020146;28;20072;-63
2023/09/13 08:36:01;;;;;;;6.00;5.15;;;23.40;65.90;;;;;;5019448;28;20029;-62
2023/09/13 08:38:27;;;;;;;7.15;4.75;;;23.30;65.80;;;;;;5022127;28;20029;-62
2023/09/13 08:40:54;;;;;;;5.00;4.50;;;23.40;65.70;;;;;;5020010;28;20038;-63
2023/09/13 08:43:21;;;;;;;5.47;4.63;;;23.30;65.80;;;;;;5021001;28;20053;-62
2023/09/13 08:45:47;;;;;;;6.43;4.75;;;23.40;65.90;;;;;;5019473;28;20093;-63
2023/09/13 08:48:14;;;;;;;6.70;5.25;;;23.30;66.00;;;;;;5019801;28;20037;-62
2023/09/13 08:50:41;;;;;;;6.15;4.80;;;23.40;66.00;;;;;;5018345;28;20100;-62
2023/09/13 08:53:07;;;;;;;5.93;5.28;;;23.40;66.00;;;;;;5017633;28;20045;-60
2023/09/13 08:55:35;;;;;;;4.50;4.10;;;23.40;66.60;;;;;;5016641;28;20030;-64
2023/09/13 08:58:01;;;;;;;9.38;5.30;;;23.40;66.00;;;;;;5013378;28;20026;-61
2023/09/13 09:00:31;;;;;;;7.70;5.35;;;23.40;66.00;;;;;;5019849;28;20404;-62
2023/09/13 09:03:00;;;;;;;7.45;4.22;;;23.40;66.00;;;;;;5015377;28;20034;-63
2023/09/13 09:05:27;;;;;;;6.40;5.07;;;23.40;66.00;;;;;;5021329;28;20053;-62
2023/09/13 09:07:54;;;;;;;6.60;4.22;;;23.40;66.40;;;;;;5021473;28;20651;-63
2023/09/13 09:10:19;;;;;;;6.13;4.72;;;23.40;66.40;;;;;;5024846;28;20026;-62
2023/09/13 09:12:50;;;;;;;7.97;4.55;;;23.30;66.40;;;;;;5019222;28;20038;-63
2023/09/13 09:15:18;;;;;;;4.32;3.92;;;23.30;66.10;;;;;;5019569;28;20033;-61
2023/09/13 09:17:47;;;;;;;4.80;4.20;;;23.20;66.10;;;;;;5018188;28;20030;-63
2023/09/13 09:20:13;;;;;;;8.68;4.28;;;23.20;66.10;;;;;;5016072;28;20542;-63
2023/09/13 09:22:39;;;;;;;4.53;3.88;;;23.20;66.30;;;;;;5015399;28;20041;-64
2023/09/13 09:25:10;;;;;;;6.85;4.32;;;23.20;66.30;;;;;;5013892;28;20030;-63
2023/09/13 09:27:38;;;;;;;6.00;3.85;;;23.20;66.40;;;;;;5013139;28;20030;-62
2023/09/13 09:30:05;;;;;;;4.75;3.90;;;23.20;66.50;;;;;;5016132;28;20036;-63
2023/09/13 09:32:30;;;;;;;6.15;3.63;;;23.20;66.50;;;;;;5017724;28;20400;-63
2023/09/13 09:34:59;;;;;;;5.82;3.80;;;23.20;66.70;;;;;;5018227;28;20030;-64
2023/09/13 09:37:34;;;;;;;4.90;4.03;;;23.20;67.10;;;;;;5018416;28;20033;-63
2023/09/13 09:40:01;;;;;;;5.25;3.90;;;23.20;67.30;;;;;;5017851;28;20030;-64
2023/09/13 09:42:29;;;;;;;6.00;4.18;;;23.20;67.20;;;;;;5016117;28;20033;-64
2023/09/13 09:44:55;;;;;;;6.50;4.03;;;23.20;67.10;;;;;;5019656;28;20069;-63
2023/09/13 09:47:21;;;;;;;5.13;4.13;;;23.20;67.20;;;;;;5017634;28;20061;-63
2023/09/13 09:49:47;;;;;;;4.97;4.50;;;23.10;67.10;;;;;;5017931;28;20083;-64
2023/09/13 09:52:13;;;;;;;5.15;4.20;;;23.10;67.10;;;;;;5014724;28;20054;-63
2023/09/13 09:54:39;;;;;;;7.57;4.32;;;23.10;67.20;;;;;;5015864;28;20527;-64
2023/09/13 09:57:05;;;;;;;5.55;4.90;;;23.10;67.30;;;;;;5013150;28;20045;-64
2023/09/13 09:59:33;;;;;;;7.78;4.40;;;23.10;67.40;;;;;;5018508;28;20441;-63
2023/09/13 10:02:00;;;;;;;5.15;4.57;;;23.10;67.50;;;;;;5017926;28;20033;-63
2023/09/13 10:04:26;;;;;;;5.43;4.28;;;23.00;67.50;;;;;;5019084;28;20029;-63
2023/09/13 10:07:03;;;;;;;5.80;4.20;;;23.00;67.70;;;;;;5012953;28;20030;-63
2023/09/13 10:09:43;;;;;;;5.80;4.22;;;23.00;67.90;;;;;;5008573;28;20499;-63
2023/09/13 10:12:09;;;;;;;5.55;4.15;;;23.00;68.00;;;;;;5022249;28;20483;-64
2023/09/13 10:14:36;;;;;;;4.68;4.15;;;23.00;68.20;;;;;;5022660;28;20616;-63
2023/09/13 10:17:06;;;;;;;4.68;4.25;;;23.00;68.00;;;;;;5021172;28;20021;-65
2023/09/13 10:19:33;;;;;;;5.50;4.25;;;23.00;68.00;;;;;;5018600;28;20034;-64
2023/09/13 10:21:59;;;;;;;7.53;4.70;;;23.00;67.60;;;;;;5019361;28;20033;-63
2023/09/13 10:24:38;;;;;;;5.97;4.80;;;23.00;67.90;;;;;;5018456;28;20026;-63
2023/09/13 10:27:08;;;;;;;6.13;4.88;;;22.90;67.00;;;;;;5018214;28;20052;-63
2023/09/13 10:29:44;;;;;;;6.05;4.88;;;22.90;67.20;;;;;;5018419;28;20052;-61
2023/09/13 10:32:13;;;;;;;8.05;4.80;;;22.90;67.30;;;;;;5018427;28;20025;-64
2023/09/13 10:34:48;;;;;;;5.32;4.63;;;22.90;67.30;;;;;;5024346;28;20045;-64
2023/09/13 10:37:42;;;;;;;6.75;4.80;;;22.90;67.40;;;;;;5018855;28;20040;-63
2023/09/13 10:40:53;;;;;;;6.25;5.22;;;22.90;67.50;;;;;;4978297;28;20030;-65
2023/09/13 10:43:21;;;;;;;6.65;4.88;;;22.90;67.40;;;;;;4939000;28;20118;-63
2023/09/13 10:45:47;;;;;;;6.85;4.72;;;22.90;67.50;;;;;;4940954;28;20153;-64
2023/09/13 10:48:15;;;;;;;4.95;4.55;;;22.90;67.80;;;;;;4980904;28;20034;-64
2023/09/13 10:50:41;;;;;;;5.35;4.68;;;22.90;67.80;;;;;;5020639;28;20022;-64
2023/09/13 10:53:07;;;;;;;5.10;4.25;;;22.90;67.80;;;;;;5015619;28;20042;-63
2023/09/13 10:55:33;;;;;;;6.68;4.30;;;22.90;67.90;;;;;;5015976;28;20439;-64
2023/09/13 10:58:02;;;;;;;4.90;4.40;;;22.80;67.80;;;;;;5018587;28;20375;-64
2023/09/13 11:00:32;;;;;;;6.65;4.80;;;22.80;67.90;;;;;;5017569;28;20519;-63
2023/09/13 11:02:58;;;;;;;6.13;5.03;;;22.80;68.10;;;;;;5018000;28;20037;-63
2023/09/13 11:05:23;;;;;;;7.43;4.40;;;22.80;67.90;;;;;;5022985;28;20041;-63
2023/09/13 11:07:49;;;;;;;5.60;5.00;;;22.80;68.10;;;;;;5019941;28;20033;-60
2023/09/13 11:10:17;;;;;;;4.80;4.30;;;22.70;68.00;;;;;;5020458;28;20112;-63
2023/09/13 11:12:48;;;;;;;4.78;4.18;;;22.80;68.30;;;;;;5020641;28;20408;-65
2023/09/13 11:15:22;;;;;;;5.88;4.40;;;22.80;68.10;;;;;;5019336;28;20140;-64
2023/09/13 11:17:48;;;;;;;4.70;4.18;;;22.80;68.20;;;;;;5018032;28;20404;-64
2023/09/13 11:20:24;;;;;;;4.63;4.20;;;22.80;68.20;;;;;;5016725;28;20033;-64
2023/09/13 11:23:05;;;;;;;5.40;4.70;;;22.80;68.20;;;;;;5017486;28;20459;-64
2023/09/13 11:25:54;;;;;;;4.57;4.18;;;22.70;68.10;;;;;;5017694;28;20054;-64
2023/09/13 11:28:38;;;;;;;5.68;4.43;;;22.70;68.10;;;;;;5015139;28;20038;-64
2023/09/13 11:31:09;;;;;;;7.57;4.40;;;22.80;68.40;;;;;;5018171;28;20519;-63
2023/09/13 11:33:39;;;;;;;5.57;4.72;;;22.80;68.30;;;;;;5020453;28;20086;-64
2023/09/13 11:36:05;;;;;;;6.00;4.30;;;22.80;68.30;;;;;;5003578;28;20167;-64
2023/09/13 11:38:31;;;;;;;4.85;4.15;;;22.90;68.20;;;;;;5020947;28;20721;-64
2023/09/13 11:40:58;;;;;;;4.45;4.05;;;22.80;67.90;;;;;;5020599;28;20033;-63
2023/09/13 11:43:25;;;;;;;5.68;4.15;;;22.80;67.90;;;;;;5020222;28;20037;-65
2023/09/13 11:45:55;;;;;;;4.57;4.15;;;22.80;68.50;;;;;;5020447;28;20091;-65
2023/09/13 11:48:28;;;;;;;4.60;4.20;;;22.80;68.10;;;;;;5015826;28;20030;-64
2023/09/13 11:50:55;;;;;;;4.45;3.95;;;22.80;68.30;;;;;;5020572;28;20129;-64
2023/09/13 11:53:27;;;;;;;4.38;3.80;;;22.90;68.80;;;;;;5017496;28;20041;-63
2023/09/13 11:55:55;;;;;;;5.93;4.55;;;22.90;69.10;;;;;;5018728;28;20076;-64
2023/09/13 11:58:46;;;;;;;5.65;5.15;;;22.80;68.90;;;;;;5018574;28;20609;-63
2023/09/13 12:01:11;;;;;;;4.95;4.10;;;22.90;69.00;;;;;;5018457;28;20543;-63
2023/09/13 12:03:41;;;;;;;4.70;4.28;;;22.90;69.20;;;;;;5022054;28;20029;-60
2023/09/13 12:06:07;;;;;;;5.90;5.30;;;22.90;68.90;;;;;;5019448;28;20050;-63
2023/09/13 12:08:37;;;;;;;4.85;4.30;;;22.90;69.10;;;;;;5019644;28;20484;-64
2023/09/13 12:11:05;;;;;;;5.88;5.20;;;22.90;69.10;;;;;;5020154;28;20040;-62
2023/09/13 12:13:50;;;;;;;5.35;4.30;;;22.90;68.70;;;;;;5018673;28;20037;-63
2023/09/13 12:16:17;;;;;;;5.57;4.30;;;22.90;68.60;;;;;;5017491;28;20498;-63
2023/09/13 12:18:43;;;;;;;5.00;4.50;;;22.80;68.60;;;;;;5019954;28;20249;-61
2023/09/13 12:21:10;;;;;;;5.22;4.72;;;22.80;68.90;;;;;;5016372;28;20065;-64
2023/09/13 12:23:37;;;;;;;4.65;4.25;;;22.80;69.00;;;;;;5018351;28;20025;-63
2023/09/13 12:26:05;;;;;;;4.90;4.38;;;22.80;69.20;;;;;;5018729;28;20415;-61
2023/09/13 12:28:36;;;;;;;7.60;4.88;;;22.80;69.40;;;;;;5015176;28;20526;-63
2023/09/13 12:31:13;;;;;;;6.13;4.47;;;22.80;69.40;;;;;;5016976;28;20041;-64
2023/09/13 12:33:43;;;;;;;6.07;4.78;;;22.80;69.60;;;;;;5016757;28;20033;-65
2023/09/13 12:36:10;;;;;;;5.63;4.05;;;22.80;69.50;;;;;;5019326;28;20037;-64
2023/09/13 12:38:41;;;;;;;5.28;3.72;;;22.80;69.60;;;;;;5018157;28;20480;-64
2023/09/13 12:41:18;;;;;;;5.22;4.53;;;22.80;69.60;;;;;;5018852;28;20033;-64
2023/09/13 12:43:47;;;;;;;5.68;4.72;;;22.90;69.20;;;;;;5015647;28;20133;-62
2023/09/13 12:52:26;;;;;;;10.00;5.15;;;22.80;68.10;;;;;;5273325;23;20267;-63
2023/09/13 12:54:51;;;;;;;5.60;4.97;;;22.90;67.80;;;;;;5007924;28;20554;-62
2023/09/13 12:57:17;;;;;;;6.43;4.93;;;22.90;67.50;;;;;;5012134;28;20079;-62
2023/09/13 12:59:44;;;;;;;5.25;4.70;;;22.90;67.20;;;;;;5016663;28;20037;-63
2023/09/13 13:02:14;;;;;;;9.27;4.90;;;22.90;67.30;;;;;;5018760;28;20462;-62
2023/09/13 13:04:42;;;;;;;6.07;5.28;;;22.90;67.20;;;;;;4997644;28;20041;-62